sensor_id;sensor_type;location;lat;lon;timestamp;pressure;altitude;pressure_sealevel;temperature;humidity
62791;BME280;48830;53.426;10.300;2023-01-28T00:01:13;102920.00;;;1.78;97.85
62791;BME280;48830;53.426;10.300;2023-01-28T00:03:39;102907.84;;;1.84;97.71
62791;BME280;48830;53.426;10.300;2023-01-28T00:06:07;102912.41;;;1.89;97.47
62791;BME280;48830;53.426;10.300;2023-01-28T00:08:33;102905.03;;;1.92;98.02
62791;BME280;48830;53.426;10.300;2023-01-28T00:11:00;102910.25;;;1.93;97.25
62791;BME280;48830;53.426;10.300;2023-01-28T00:13:26;102903.50;;;1.94;95.90
62791;BME280;48830;53.426;10.300;2023-01-28T00:15:55;102902.00;;;1.96;96.76
62791;BME280;48830;53.426;10.300;2023-01-28T00:18:21;102908.75;;;1.95;98.41
62791;BME280;48830;53.426;10.300;2023-01-28T00:21:00;102910.38;;;1.95;100.00
62791;BME280;48830;53.426;10.300;2023-01-28T00:23:27;102905.03;;;1.92;100.00
62791;BME280;48830;53.426;10.300;2023-01-28T00:25:53;102908.59;;;1.94;100.00
62791;BME280;48830;53.426;10.300;2023-01-28T00:28:20;102911.00;;;1.92;100.00
62791;BME280;48830;53.426;10.300;2023-01-28T00:30:46;102911.78;;;1.91;100.00
62791;BME280;48830;53.426;10.300;2023-01-28T00:33:11;102919.38;;;1.91;100.00
62791;BME280;48830;53.426;10.300;2023-01-28T00:35:38;102922.03;;;1.93;100.00
62791;BME280;48830;53.426;10.300;2023-01-28T00:38:03;102921.16;;;1.92;100.00
62791;BME280;48830;53.426;10.300;2023-01-28T00:40:29;102917.59;;;1.90;100.00
62791;BME280;48830;53.426;10.300;2023-01-28T00:42:55;102919.25;;;1.90;100.00
62791;BME280;48830;53.426;10.300;2023-01-28T00:45:20;102917.72;;;1.92;100.00
62791;BME280;48830;53.426;10.300;2023-01-28T00:47:46;102915.06;;;1.90;100.00
62791;BME280;48830;53.426;10.300;2023-01-28T00:50:13;102910.00;;;1.90;100.00
62791;BME280;48830;53.426;10.300;2023-01-28T00:52:39;102906.56;;;1.90;100.00
62791;BME280;48830;53.426;10.300;2023-01-28T00:55:05;102921.03;;;1.91;100.00
62791;BME280;48830;53.426;10.300;2023-01-28T00:57:30;102921.03;;;1.91;100.00
62791;BME280;48830;53.426;10.300;2023-01-28T00:59:56;102913.78;;;1.85;100.00
62791;BME280;48830;53.426;10.300;2023-01-28T01:02:21;102913.41;;;1.91;100.00
62791;BME280;48830;53.426;10.300;2023-01-28T01:04:47;102904.81;;;1.89;100.00
62791;BME280;48830;53.426;10.300;2023-01-28T01:07:29;102907.34;;;1.89;100.00
62791;BME280;48830;53.426;10.300;2023-01-28T01:10:07;102916.72;;;1.90;100.00
62791;BME280;48830;53.426;10.300;2023-01-28T01:12:32;102909.88;;;1.89;100.00
62791;BME280;48830;53.426;10.300;2023-01-28T01:15:00;102908.06;;;1.88;100.00
62791;BME280;48830;53.426;10.300;2023-01-28T01:17:29;102912.41;;;1.89;100.00
62791;BME280;48830;53.426;10.300;2023-01-28T01:19:55;102918.22;;;1.88;95.26
62791;BME280;48830;53.426;10.300;2023-01-28T01:22:20;102911.66;;;1.90;89.28
62791;BME280;48830;53.426;10.300;2023-01-28T01:24:46;102909.50;;;1.94;87.80
62791;BME280;48830;53.426;10.300;2023-01-28T01:27:13;102906.31;;;1.97;86.41
62791;BME280;48830;53.426;10.300;2023-01-28T01:29:39;102903.03;;;1.98;86.80
62791;BME280;48830;53.426;10.300;2023-01-28T01:32:05;102902.25;;;1.99;85.70
62791;BME280;48830;53.426;10.300;2023-01-28T01:34:31;102898.34;;;2.02;87.47
62791;BME280;48830;53.426;10.300;2023-01-28T01:36:57;102903.53;;;2.04;86.69
62791;BME280;48830;53.426;10.300;2023-01-28T01:39:22;102890.84;;;2.04;89.90
62791;BME280;48830;53.426;10.300;2023-01-28T01:41:48;102896.81;;;2.04;91.25
62791;BME280;48830;53.426;10.300;2023-01-28T01:47:20;102914.19;;;2.00;94.15
62791;BME280;48830;53.426;10.300;2023-01-28T01:49:47;102904.78;;;1.99;95.44
62791;BME280;48830;53.426;10.300;2023-01-28T01:52:23;102907.31;;;1.99;95.63
62791;BME280;48830;53.426;10.300;2023-01-28T01:54:52;102911.13;;;1.94;97.01
62791;BME280;48830;53.426;10.300;2023-01-28T01:57:24;102912.66;;;1.92;99.18
62791;BME280;48830;53.426;10.300;2023-01-28T01:59:52;102905.81;;;1.91;99.85
62791;BME280;48830;53.426;10.300;2023-01-28T02:02:18;102908.34;;;1.91;100.00
62791;BME280;48830;53.426;10.300;2023-01-28T02:04:44;102909.88;;;1.89;98.42
62791;BME280;48830;53.426;10.300;2023-01-28T02:07:16;102910.88;;;1.91;98.51
62791;BME280;48830;53.426;10.300;2023-01-28T02:09:42;102911.88;;;1.93;96.39
62791;BME280;48830;53.426;10.300;2023-01-28T02:12:11;102907.84;;;1.95;94.80
62791;BME280;48830;53.426;10.300;2023-01-28T02:14:41;102918.13;;;1.96;94.76
62791;BME280;48830;53.426;10.300;2023-01-28T02:17:08;102908.84;;;1.97;94.04
62791;BME280;48830;53.426;10.300;2023-01-28T02:19:43;102908.97;;;1.98;93.87
62791;BME280;48830;53.426;10.300;2023-01-28T02:33:31;102900.00;;;2.02;87.04
62791;BME280;48830;53.426;10.300;2023-01-28T02:36:11;102899.88;;;2.00;87.41
62791;BME280;48830;53.426;10.300;2023-01-28T02:38:48;102901.53;;;2.00;87.02
62791;BME280;48830;53.426;10.300;2023-01-28T02:41:23;102902.25;;;1.99;86.56
62791;BME280;48830;53.426;10.300;2023-01-28T02:43:49;102893.63;;;1.97;86.58
62791;BME280;48830;53.426;10.300;2023-01-28T02:49:33;102888.56;;;1.97;87.56
62791;BME280;48830;53.426;10.300;2023-01-28T02:55:04;102892.38;;;1.92;87.98
62791;BME280;48830;53.426;10.300;2023-01-28T03:07:36;102894.13;;;1.82;94.37
62791;BME280;48830;53.426;10.300;2023-01-28T03:10:05;102885.88;;;1.75;94.27
62791;BME280;48830;53.426;10.300;2023-01-28T03:12:34;102893.47;;;1.75;95.86
62791;BME280;48830;53.426;10.300;2023-01-28T03:15:28;102888.03;;;1.70;98.08
62791;BME280;48830;53.426;10.300;2023-01-28T03:18:18;102890.56;;;1.70;98.58
62791;BME280;48830;53.426;10.300;2023-01-28T03:21:05;102888.78;;;1.69;97.92
62791;BME280;48830;53.426;10.300;2023-01-28T03:24:02;102887.78;;;1.67;96.92
62791;BME280;48830;53.426;10.300;2023-01-28T03:29:42;102898.28;;;1.62;94.33
62791;BME280;48830;53.426;10.300;2023-01-28T03:32:30;102896.38;;;1.59;98.30
62791;BME280;48830;53.426;10.300;2023-01-28T03:35:16;102886.72;;;1.55;100.00
62791;BME280;48830;53.426;10.300;2023-01-28T03:38:03;102884.94;;;1.54;100.00
62791;BME280;48830;53.426;10.300;2023-01-28T03:40:54;102889.00;;;1.52;100.00
62791;BME280;48830;53.426;10.300;2023-01-28T03:43:21;102882.91;;;1.50;100.00
62791;BME280;48830;53.426;10.300;2023-01-28T03:45:48;102884.44;;;1.48;100.00
62791;BME280;48830;53.426;10.300;2023-01-28T03:48:20;102881.50;;;1.43;100.00
62791;BME280;48830;53.426;10.300;2023-01-28T03:50:46;102884.31;;;1.46;100.00
62791;BME280;48830;53.426;10.300;2023-01-28T03:53:16;102885.94;;;1.46;99.86
62791;BME280;48830;53.426;10.300;2023-01-28T03:55:48;102889.50;;;1.48;99.75
62791;BME280;48830;53.426;10.300;2023-01-28T03:58:15;102892.78;;;1.47;100.00
62791;BME280;48830;53.426;10.300;2023-01-28T04:00:41;102894.94;;;1.42;100.00
62791;BME280;48830;53.426;10.300;2023-01-28T04:03:10;102889.09;;;1.43;100.00
62791;BME280;48830;53.426;10.300;2023-01-28T04:06:04;102892.50;;;1.44;100.00
62791;BME280;48830;53.426;10.300;2023-01-28T04:09:05;102902.41;;;1.41;100.00
62791;BME280;48830;53.426;10.300;2023-01-28T04:11:30;102904.94;;;1.41;100.00
62791;BME280;48830;53.426;10.300;2023-01-28T04:13:58;102907.97;;;1.37;100.00
62791;BME280;48830;53.426;10.300;2023-01-28T04:16:26;102903.91;;;1.39;100.00
62791;BME280;48830;53.426;10.300;2023-01-28T04:18:52;102911.38;;;1.37;100.00
62791;BME280;48830;53.426;10.300;2023-01-28T04:21:17;102905.16;;;1.34;100.00
62791;BME280;48830;53.426;10.300;2023-01-28T04:23:43;102908.72;;;1.36;100.00
62791;BME280;48830;53.426;10.300;2023-01-28T04:26:10;102907.19;;;1.38;100.00
62791;BME280;48830;53.426;10.300;2023-01-28T04:28:36;102907.19;;;1.38;100.00
62791;BME280;48830;53.426;10.300;2023-01-28T04:31:02;102902.78;;;1.35;100.00
62791;BME280;48830;53.426;10.300;2023-01-28T04:33:39;102896.28;;;1.39;100.00
62791;BME280;48830;53.426;10.300;2023-01-28T04:36:13;102890.47;;;1.40;100.00
62791;BME280;48830;53.426;10.300;2023-01-28T04:39:05;102889.94;;;1.34;100.00
62791;BME280;48830;53.426;10.300;2023-01-28T04:41:36;102888.94;;;1.31;100.00
62791;BME280;48830;53.426;10.300;2023-01-28T04:44:29;102888.81;;;1.30;100.00
62791;BME280;48830;53.426;10.300;2023-01-28T04:47:27;102879.66;;;1.22;100.00
62791;BME280;48830;53.426;10.300;2023-01-28T04:50:21;102887.72;;;1.18;100.00
62791;BME280;48830;53.426;10.300;2023-01-28T04:53:12;102877.84;;;1.11;100.00
62791;BME280;48830;53.426;10.300;2023-01-28T04:55:49;102885.78;;;1.05;100.00
62791;BME280;48830;53.426;10.300;2023-01-28T04:58:15;102885.38;;;1.00;100.00
62791;BME280;48830;53.426;10.300;2023-01-28T05:00:42;102880.78;;;0.96;100.00
62791;BME280;48830;53.426;10.300;2023-01-28T05:03:07;102876.38;;;0.94;100.00
62791;BME280;48830;53.426;10.300;2023-01-28T05:05:33;102884.44;;;0.90;100.00
62791;BME280;48830;53.426;10.300;2023-01-28T05:08:11;102889.50;;;0.90;100.00
62791;BME280;48830;53.426;10.300;2023-01-28T05:10:37;102889.50;;;0.90;100.00
62791;BME280;48830;53.426;10.300;2023-01-28T05:13:05;102884.03;;;0.85;100.00
62791;BME280;48830;53.426;10.300;2023-01-28T05:15:30;102884.91;;;0.86;100.00
62791;BME280;48830;53.426;10.300;2023-01-28T05:17:56;102890.75;;;0.85;100.00
62791;BME280;48830;53.426;10.300;2023-01-28T05:20:22;102898.22;;;0.83;100.00
62791;BME280;48830;53.426;10.300;2023-01-28T05:22:49;102891.38;;;0.82;100.00
62791;BME280;48830;53.426;10.300;2023-01-28T05:25:18;102888.97;;;0.84;100.00
62791;BME280;48830;53.426;10.300;2023-01-28T05:27:49;102893.38;;;0.76;100.00
62791;BME280;48830;53.426;10.300;2023-01-28T05:30:15;102879.66;;;0.74;100.00
62791;BME280;48830;53.426;10.300;2023-01-28T05:32:41;102877.78;;;0.71;100.00
62791;BME280;48830;53.426;10.300;2023-01-28T05:35:07;102875.72;;;0.67;100.00
62791;BME280;48830;53.426;10.300;2023-01-28T05:37:33;102883.59;;;0.70;100.00
62791;BME280;48830;53.426;10.300;2023-01-28T05:39:59;102882.13;;;0.64;100.00
62791;BME280;48830;53.426;10.300;2023-01-28T05:42:24;102868.34;;;0.60;100.00
62791;BME280;48830;53.426;10.300;2023-01-28T05:44:56;102858.16;;;0.50;100.00
62791;BME280;48830;53.426;10.300;2023-01-28T05:47:38;102857.19;;;0.39;100.00
62791;BME280;48830;53.426;10.300;2023-01-28T05:50:18;102859.72;;;0.39;100.00
62791;BME280;48830;53.426;10.300;2023-01-28T05:53:05;102857.78;;;0.37;100.00
62791;BME280;48830;53.426;10.300;2023-01-28T05:55:32;102847.25;;;0.32;100.00
62791;BME280;48830;53.426;10.300;2023-01-28T05:57:57;102854.25;;;0.35;100.00
62791;BME280;48830;53.426;10.300;2023-01-28T06:00:25;102855.75;;;0.33;100.00
62791;BME280;48830;53.426;10.300;2023-01-28T06:02:51;102851.63;;;0.24;100.00
62791;BME280;48830;53.426;10.300;2023-01-28T06:05:18;102850.22;;;0.18;100.00
62791;BME280;48830;53.426;10.300;2023-01-28T06:07:44;102859.78;;;0.12;100.00
62791;BME280;48830;53.426;10.300;2023-01-28T06:10:10;102864.88;;;0.03;100.00
62791;BME280;48830;53.426;10.300;2023-01-28T06:12:36;102872.34;;;0.02;100.00
62791;BME280;48830;53.426;10.300;2023-01-28T06:15:19;102872.66;;;-0.04;100.00
62791;BME280;48830;53.426;10.300;2023-01-28T06:17:58;102871.91;;;-0.03;100.00
62791;BME280;48830;53.426;10.300;2023-01-28T06:20:30;102863.44;;;-0.04;100.00
62791;BME280;48830;53.426;10.300;2023-01-28T06:22:57;102868.50;;;-0.04;100.00
62791;BME280;48830;53.426;10.300;2023-01-28T06:25:22;102860.47;;;-0.08;100.00
62791;BME280;48830;53.426;10.300;2023-01-28T06:27:48;102865.13;;;-0.13;100.00
62791;BME280;48830;53.426;10.300;2023-01-28T06:30:13;102867.09;;;-0.19;100.00
62791;BME280;48830;53.426;10.300;2023-01-28T06:32:39;102866.78;;;-0.22;100.00
62791;BME280;48830;53.426;10.300;2023-01-28T06:35:05;102862.94;;;-0.27;100.00
62791;BME280;48830;53.426;10.300;2023-01-28T06:37:30;102863.13;;;-0.25;100.00
62791;BME280;48830;53.426;10.300;2023-01-28T06:39:56;102858.50;;;-0.30;100.00
62791;BME280;48830;53.426;10.300;2023-01-28T06:42:21;102878.09;;;-0.27;100.00
62791;BME280;48830;53.426;10.300;2023-01-28T06:44:47;102872.16;;;-0.28;100.00
62791;BME280;48830;53.426;10.300;2023-01-28T06:47:12;102869.50;;;-0.29;100.00
62791;BME280;48830;53.426;10.300;2023-01-28T06:49:39;102872.16;;;-0.28;100.00
62791;BME280;48830;53.426;10.300;2023-01-28T06:52:05;102866.56;;;-0.34;100.00
62791;BME280;48830;53.426;10.300;2023-01-28T06:54:30;102860.91;;;-0.31;100.00
62791;BME280;48830;53.426;10.300;2023-01-28T06:56:57;102865.66;;;-0.34;100.00
62791;BME280;48830;53.426;10.300;2023-01-28T06:59:23;102870.16;;;-0.40;100.00
62791;BME280;48830;53.426;10.300;2023-01-28T07:01:48;102874.31;;;-0.41;100.00
62791;BME280;48830;53.426;10.300;2023-01-28T07:04:14;102873.47;;;-0.50;100.00
62791;BME280;48830;53.426;10.300;2023-01-28T07:06:39;102858.03;;;-0.53;100.00
62791;BME280;48830;53.426;10.300;2023-01-28T07:09:05;102864.28;;;-0.58;100.00
62791;BME280;48830;53.426;10.300;2023-01-28T07:11:30;102859.25;;;-0.58;100.00
62791;BME280;48830;53.426;10.300;2023-01-28T07:13:56;102864.72;;;-0.54;100.00
62791;BME280;48830;53.426;10.300;2023-01-28T07:16:21;102877.69;;;-0.59;100.00
62791;BME280;48830;53.426;10.300;2023-01-28T07:18:47;102885.69;;;-0.63;100.00
62791;BME280;48830;53.426;10.300;2023-01-28T07:21:12;102901.75;;;-0.63;100.00
62791;BME280;48830;53.426;10.300;2023-01-28T07:23:38;102912.03;;;-0.70;100.00
62791;BME280;48830;53.426;10.300;2023-01-28T07:26:04;102910.38;;;-0.69;100.00
62791;BME280;48830;53.426;10.300;2023-01-28T07:28:30;102910.38;;;-0.69;100.00
62791;BME280;48830;53.426;10.300;2023-01-28T07:30:55;102913.94;;;-0.67;100.00
62791;BME280;48830;53.426;10.300;2023-01-28T07:33:21;102916.91;;;-0.71;100.00
62791;BME280;48830;53.426;10.300;2023-01-28T07:35:47;102916.91;;;-0.71;100.00
62791;BME280;48830;53.426;10.300;2023-01-28T07:38:13;102922.41;;;-0.67;100.00
62791;BME280;48830;53.426;10.300;2023-01-28T07:40:38;102920.75;;;-0.66;100.00
62791;BME280;48830;53.426;10.300;2023-01-28T07:43:04;102944.81;;;-0.61;100.00
62791;BME280;48830;53.426;10.300;2023-01-28T07:45:36;102944.81;;;-0.61;100.00
62791;BME280;48830;53.426;10.300;2023-01-28T07:48:04;102943.63;;;-0.56;100.00
62791;BME280;48830;53.426;10.300;2023-01-28T07:50:32;102947.78;;;-0.48;100.00
62791;BME280;48830;53.426;10.300;2023-01-28T07:53:00;102939.13;;;-0.50;100.00
62791;BME280;48830;53.426;10.300;2023-01-28T07:55:26;102935.84;;;-0.49;100.00
62791;BME280;48830;53.426;10.300;2023-01-28T07:57:53;102932.75;;;-0.46;100.00
62791;BME280;48830;53.426;10.300;2023-01-28T08:00:21;102943.44;;;-0.40;100.00
62791;BME280;48830;53.426;10.300;2023-01-28T08:02:47;102938.66;;;-0.37;100.00
62791;BME280;48830;53.426;10.300;2023-01-28T08:05:17;102937.31;;;-0.34;100.00
62791;BME280;48830;53.426;10.300;2023-01-28T08:07:43;102951.13;;;-0.30;100.00
62791;BME280;48830;53.426;10.300;2023-01-28T08:10:11;102953.03;;;-0.28;100.00
62791;BME280;48830;53.426;10.300;2023-01-28T08:12:37;102950.94;;;-0.23;100.00
62791;BME280;48830;53.426;10.300;2023-01-28T08:15:03;102943.34;;;-0.23;100.00
62791;BME280;48830;53.426;10.300;2023-01-28T08:17:29;102952.88;;;-0.20;100.00
62791;BME280;48830;53.426;10.300;2023-01-28T08:19:55;102956.53;;;-0.08;100.00
62791;BME280;48830;53.426;10.300;2023-01-28T08:22:24;102955.03;;;-0.06;100.00
62791;BME280;48830;53.426;10.300;2023-01-28T08:24:50;102957.66;;;0.04;100.00
62791;BME280;48830;53.426;10.300;2023-01-28T08:27:15;102968.34;;;0.10;100.00
62791;BME280;48830;53.426;10.300;2023-01-28T08:29:40;102971.34;;;0.06;100.00
62791;BME280;48830;53.426;10.300;2023-01-28T08:32:08;102974.59;;;0.05;100.00
62791;BME280;48830;53.426;10.300;2023-01-28T08:34:34;102961.81;;;0.12;100.00
62791;BME280;48830;53.426;10.300;2023-01-28T08:36:59;102959.63;;;0.25;100.00
62791;BME280;48830;53.426;10.300;2023-01-28T08:39:25;102972.69;;;0.39;100.00
62791;BME280;48830;53.426;10.300;2023-01-28T08:41:50;102958.31;;;0.48;100.00
62791;BME280;48830;53.426;10.300;2023-01-28T08:44:16;102959.88;;;0.65;100.00
62791;BME280;48830;53.426;10.300;2023-01-28T08:46:41;102964.72;;;0.72;100.00
62791;BME280;48830;53.426;10.300;2023-01-28T08:49:07;102975.34;;;0.87;100.00
62791;BME280;48830;53.426;10.300;2023-01-28T08:51:32;102972.66;;;1.04;100.00
62791;BME280;48830;53.426;10.300;2023-01-28T08:53:57;102973.75;;;0.97;100.00
62791;BME280;48830;53.426;10.300;2023-01-28T08:56:23;102977.25;;;1.08;100.00
62791;BME280;48830;53.426;10.300;2023-01-28T08:58:48;102982.28;;;1.27;100.00
62791;BME280;48830;53.426;10.300;2023-01-28T09:01:14;102984.84;;;1.37;100.00
62791;BME280;48830;53.426;10.300;2023-01-28T09:03:39;102976.00;;;1.42;100.00
62791;BME280;48830;53.426;10.300;2023-01-28T09:06:05;102981.13;;;1.52;100.00
62791;BME280;48830;53.426;10.300;2023-01-28T09:08:31;102980.28;;;1.62;100.00
62791;BME280;48830;53.426;10.300;2023-01-28T09:10:57;102980.59;;;1.86;100.00
62791;BME280;48830;53.426;10.300;2023-01-28T09:13:23;102990.75;;;1.86;99.50
62791;BME280;48830;53.426;10.300;2023-01-28T09:15:49;102997.56;;;2.16;99.16
62791;BME280;48830;53.426;10.300;2023-01-28T09:18:16;102998.22;;;2.33;98.52
62791;BME280;48830;53.426;10.300;2023-01-28T09:20:42;103007.34;;;2.31;95.96
62791;BME280;48830;53.426;10.300;2023-01-28T09:23:08;103013.31;;;2.42;95.99
62791;BME280;48830;53.426;10.300;2023-01-28T09:25:34;103027.91;;;2.34;96.06
62791;BME280;48830;53.426;10.300;2023-01-28T09:28:03;103020.25;;;2.24;97.28
62791;BME280;48830;53.426;10.300;2023-01-28T09:30:29;103012.94;;;2.27;97.53
62791;BME280;48830;53.426;10.300;2023-01-28T09:32:55;103009.13;;;2.63;100.00
62791;BME280;48830;53.426;10.300;2023-01-28T09:35:22;103020.81;;;3.02;99.09
62791;BME280;48830;53.426;10.300;2023-01-28T09:37:48;103013.09;;;3.32;94.53
62791;BME280;48830;53.426;10.300;2023-01-28T09:40:40;103030.66;;;3.29;92.37
62791;BME280;48830;53.426;10.300;2023-01-28T09:45:52;103047.75;;;2.59;93.49
62791;BME280;48830;53.426;10.300;2023-01-28T09:48:23;103045.81;;;2.56;96.40
62791;BME280;48830;53.426;10.300;2023-01-28T09:50:55;103049.13;;;2.66;94.89
62791;BME280;48830;53.426;10.300;2023-01-28T09:53:30;103055.72;;;2.63;94.50
62791;BME280;48830;53.426;10.300;2023-01-28T09:56:03;103054.44;;;2.69;95.00
62791;BME280;48830;53.426;10.300;2023-01-28T09:58:29;103049.38;;;2.69;95.26
62791;BME280;48830;53.426;10.300;2023-01-28T10:01:25;103031.56;;;3.20;93.11
62791;BME280;48830;53.426;10.300;2023-01-28T10:11:41;103017.97;;;9.09;66.98
62791;BME280;48830;53.426;10.300;2023-01-28T10:14:30;103014.72;;;11.95;53.14
62791;BME280;48830;53.426;10.300;2023-01-28T10:19:59;102995.84;;;14.07;45.20
62791;BME280;48830;53.426;10.300;2023-01-28T10:22:39;102999.19;;;14.04;44.85
62791;BME280;48830;53.426;10.300;2023-01-28T10:25:20;103013.91;;;13.38;45.22
62791;BME280;48830;53.426;10.300;2023-01-28T10:27:47;102991.03;;;14.65;43.19
62791;BME280;48830;53.426;10.300;2023-01-28T10:32:50;102981.03;;;15.87;40.91
62791;BME280;48830;53.426;10.300;2023-01-28T10:35:16;102982.81;;;15.31;40.24
62791;BME280;48830;53.426;10.300;2023-01-28T10:37:42;102985.16;;;14.45;41.57
62791;BME280;48830;53.426;10.300;2023-01-28T10:40:13;102977.41;;;16.44;40.03
62791;BME280;48830;53.426;10.300;2023-01-28T10:42:39;102966.66;;;16.30;39.04
62791;BME280;48830;53.426;10.300;2023-01-28T10:45:13;102972.31;;;15.55;39.37
62791;BME280;48830;53.426;10.300;2023-01-28T10:47:43;102974.50;;;15.14;40.63
62791;BME280;48830;53.426;10.300;2023-01-28T10:50:35;102969.91;;;15.91;40.05
62791;BME280;48830;53.426;10.300;2023-01-28T10:53:04;102967.59;;;15.70;39.54
62791;BME280;48830;53.426;10.300;2023-01-28T10:57:59;102941.34;;;12.06;43.07
62791;BME280;48830;53.426;10.300;2023-01-28T11:00:26;102953.34;;;10.60;47.28
62791;BME280;48830;53.426;10.300;2023-01-28T11:02:55;102944.16;;;11.19;48.40
62791;BME280;48830;53.426;10.300;2023-01-28T11:05:26;102935.78;;;10.69;47.38
62791;BME280;48830;53.426;10.300;2023-01-28T11:08:16;102917.88;;;9.88;48.46
62791;BME280;48830;53.426;10.300;2023-01-28T11:10:42;102920.81;;;8.99;50.58
62791;BME280;48830;53.426;10.300;2023-01-28T11:15:46;102904.56;;;7.97;53.21
62791;BME280;48830;53.426;10.300;2023-01-28T11:18:17;102900.63;;;8.90;53.50
62791;BME280;48830;53.426;10.300;2023-01-28T11:20:50;102893.97;;;9.56;51.14
62791;BME280;48830;53.426;10.300;2023-01-28T11:23:27;102903.94;;;11.03;47.88
62791;BME280;48830;53.426;10.300;2023-01-28T11:26:13;102889.53;;;12.63;44.38
62791;BME280;48830;53.426;10.300;2023-01-28T11:28:41;102876.88;;;11.48;44.82
62791;BME280;48830;53.426;10.300;2023-01-28T11:31:07;102880.16;;;11.64;45.21
62791;BME280;48830;53.426;10.300;2023-01-28T11:33:43;102879.88;;;11.96;44.62
62791;BME280;48830;53.426;10.300;2023-01-28T11:36:15;102885.44;;;12.89;43.03
62791;BME280;48830;53.426;10.300;2023-01-28T11:39:02;102864.50;;;13.98;41.49
62791;BME280;48830;53.426;10.300;2023-01-28T11:41:32;102867.88;;;13.96;41.14
62791;BME280;48830;53.426;10.300;2023-01-28T11:44:00;102855.16;;;15.08;39.38
62791;BME280;48830;53.426;10.300;2023-01-28T11:52:27;102820.91;;;14.34;39.74
62791;BME280;48830;53.426;10.300;2023-01-28T12:06:35;102864.28;;;14.68;39.71
62791;BME280;48830;53.426;10.300;2023-01-28T12:11:54;102851.06;;;15.45;39.40
62791;BME280;48830;53.426;10.300;2023-01-28T12:23:38;102852.63;;;16.36;37.29
62791;BME280;48830;53.426;10.300;2023-01-28T12:26:15;102835.31;;;15.69;37.54
62791;BME280;48830;53.426;10.300;2023-01-28T12:38:06;102829.88;;;14.45;40.11
62791;BME280;48830;53.426;10.300;2023-01-28T12:40:44;102810.13;;;14.75;39.99
62791;BME280;48830;53.426;10.300;2023-01-28T12:45:50;102810.50;;;15.47;38.89
62791;BME280;48830;53.426;10.300;2023-01-28T12:48:26;102807.09;;;15.80;39.15
62791;BME280;48830;53.426;10.300;2023-01-28T12:50:54;102802.66;;;15.14;39.15
62791;BME280;48830;53.426;10.300;2023-01-28T12:56:14;102798.78;;;12.73;42.96
62791;BME280;48830;53.426;10.300;2023-01-28T13:01:18;102785.50;;;13.81;42.87
62791;BME280;48830;53.426;10.300;2023-01-28T13:03:50;102783.22;;;13.64;42.38
62791;BME280;48830;53.426;10.300;2023-01-28T13:08:56;102771.34;;;12.32;44.89
62791;BME280;48830;53.426;10.300;2023-01-28T13:11:31;102776.00;;;12.41;45.61
62791;BME280;48830;53.426;10.300;2023-01-28T13:13:58;102769.81;;;13.03;43.59
62791;BME280;48830;53.426;10.300;2023-01-28T13:16:24;102773.56;;;13.84;42.82
62791;BME280;48830;53.426;10.300;2023-01-28T13:18:49;102762.91;;;14.01;43.16
62791;BME280;48830;53.426;10.300;2023-01-28T13:24:29;102763.66;;;11.71;46.56
62791;BME280;48830;53.426;10.300;2023-01-28T13:26:47;102749.88;;;12.54;46.02
62791;BME280;48830;53.426;10.300;2023-01-28T13:31:44;102744.56;;;11.66;47.51
62791;BME280;48830;53.426;10.300;2023-01-28T13:36:55;102743.03;;;10.55;49.77
62791;BME280;48830;53.426;10.300;2023-01-28T13:39:23;102751.25;;;12.23;46.83
62791;BME280;48830;53.426;10.300;2023-01-28T13:42:07;102747.75;;;13.35;45.33
62791;BME280;48830;53.426;10.300;2023-01-28T13:44:35;102758.78;;;14.06;43.77
62791;BME280;48830;53.426;10.300;2023-01-28T13:49:41;102762.69;;;14.47;43.04
62791;BME280;48830;53.426;10.300;2023-01-28T13:54:40;102770.09;;;13.34;44.77
62791;BME280;48830;53.426;10.300;2023-01-28T13:59:48;102766.41;;;15.45;40.99
62791;BME280;48830;53.426;10.300;2023-01-28T14:13:27;102807.94;;;9.81;54.28
62791;BME280;48830;53.426;10.300;2023-01-28T14:18:35;102810.28;;;9.27;56.74
62791;BME280;48830;53.426;10.300;2023-01-28T14:21:13;102796.50;;;9.92;55.28
62791;BME280;48830;53.426;10.300;2023-01-28T14:23:53;102797.28;;;10.07;54.12
62791;BME280;48830;53.426;10.300;2023-01-28T14:26:40;102802.66;;;9.12;57.95
62791;BME280;48830;53.426;10.300;2023-01-28T14:31:43;102791.00;;;7.96;61.46
62791;BME280;48830;53.426;10.300;2023-01-28T14:34:28;102789.50;;;7.70;63.59
62791;BME280;48830;53.426;10.300;2023-01-28T14:36:59;102784.59;;;7.45;64.66
62791;BME280;48830;53.426;10.300;2023-01-28T14:39:26;102785.63;;;7.34;65.64
62791;BME280;48830;53.426;10.300;2023-01-28T14:41:54;102776.44;;;7.09;67.18
62791;BME280;48830;53.426;10.300;2023-01-28T14:49:54;102786.16;;;6.34;71.56
62791;BME280;48830;53.426;10.300;2023-01-28T14:55:44;102774.47;;;6.11;72.18
62791;BME280;48830;53.426;10.300;2023-01-28T14:58:18;102778.00;;;6.00;72.87
62791;BME280;48830;53.426;10.300;2023-01-28T15:01:01;102787.47;;;5.89;74.33
62791;BME280;48830;53.426;10.300;2023-01-28T15:03:28;102791.78;;;5.90;74.76
62791;BME280;48830;53.426;10.300;2023-01-28T15:06:14;102803.47;;;5.87;75.88
62791;BME280;48830;53.426;10.300;2023-01-28T15:08:39;102809.00;;;5.68;76.98
62791;BME280;48830;53.426;10.300;2023-01-28T15:11:07;102805.34;;;5.64;77.69
62791;BME280;48830;53.426;10.300;2023-01-28T15:13:40;102810.25;;;5.61;78.82
62791;BME280;48830;53.426;10.300;2023-01-28T15:16:16;102822.28;;;5.50;78.85
62791;BME280;48830;53.426;10.300;2023-01-28T15:18:43;102818.94;;;5.51;79.33
62791;BME280;48830;53.426;10.300;2023-01-28T15:21:09;102826.41;;;5.37;79.77